Time;durP1;ratioP1;P1;durP2;ratioP2;P2;SDS_P1;SDS_P2;PMS_P1;PMS_P2;Temp;Humidity;BMP_temperature;BMP_pressure;BME280_temperature;BME280_humidity;BME280_pressure;Samples;Min_cycle;Max_cycle;Signal;HPM_P1;HPM_P2
2023/10/17 00:00:28;;;;;;;0.60;0.60;;;;;;;3.75;83.12;97027.91;29395;213;63008;-57
2023/10/17 00:01:02;;;;;;;0.60;0.60;;;;;;;3.73;83.04;97024.62;29395;234;63019;-57
2023/10/17 00:01:34;;;;;;;0.60;0.60;;;;;;;3.72;82.94;97023.81;29395;219;63009;-57
2023/10/17 00:02:12;;;;;;;0.55;0.55;;;;;;;3.69;83.64;97029.69;29395;267;63005;-57
2023/10/17 00:02:43;;;;;;;0.60;0.60;;;;;;;3.69;84.06;97021.63;29394;237;64013;-57
2023/10/17 00:03:14;;;;;;;0.60;0.60;;;;;;;3.69;84.61;97029.69;29395;222;63005;-57
2023/10/17 00:03:46;;;;;;;0.60;0.60;;;;;;;3.67;84.73;97021.06;29395;225;63009;-57
2023/10/17 00:04:27;;;;;;;0.60;0.60;;;;;;;3.63;83.78;97025.28;29395;307;63005;-57
2023/10/17 00:04:59;;;;;;;;;;;;;;;3.63;83.67;97017.25;29996;983;6004;-57
2023/10/17 00:05:31;;;;;;;0.70;0.70;;;;;;;3.67;83.49;97021.06;29400;234;63009;-58
2023/10/17 00:06:02;;;;;;;0.60;0.60;;;;;;;3.68;83.46;97020.00;29395;241;63004;-57
2023/10/17 00:06:34;;;;;;;0.80;0.80;;;;;;;3.69;82.99;97013.59;29395;228;63009;-57
2023/10/17 00:07:05;;;;;;;0.60;0.60;;;;;;;3.72;82.91;97015.78;29395;215;63004;-57
2023/10/17 00:07:37;;;;;;;0.60;0.60;;;;;;;3.74;82.94;97015.53;29395;256;63008;-58
2023/10/17 00:08:12;;;;;;;0.60;0.60;;;;;;;3.74;82.83;97016.34;29394;203;64009;-58
2023/10/17 00:08:50;;;;;;;0.60;0.60;;;;;;;3.76;82.53;97008.88;29395;342;63009;-57
2023/10/17 00:09:25;;;;;;;0.60;0.60;;;;;;;3.79;82.41;97011.06;29395;220;63005;-58
2023/10/17 00:09:58;;;;;;;0.60;0.60;;;;;;;3.80;81.90;97015.38;29395;207;63009;-57
2023/10/17 00:10:32;;;;;;;0.60;0.60;;;;;;;3.82;82.00;97010.53;29395;210;63017;-57
2023/10/17 00:11:12;;;;;;;0.60;0.60;;;;;;;3.84;82.54;97016.47;29395;259;63009;-58
2023/10/17 00:12:09;;;;;;;0.60;0.60;;;;;;;3.87;82.38;97013.28;29395;216;63005;-58
2023/10/17 00:12:43;;;;;;;0.60;0.60;;;;;;;3.88;82.45;97012.25;29394;229;64013;-57
2023/10/17 00:13:31;;;;;;;0.60;0.60;;;;;;;3.89;82.31;97008.50;29395;214;63004;-57
2023/10/17 00:14:11;;;;;;;0.60;0.60;;;;;;;3.91;81.77;97006.37;29395;217;63009;-56
2023/10/17 00:14:45;;;;;;;0.60;0.60;;;;;;;3.93;81.41;97009.62;29395;202;63004;-57
2023/10/17 00:15:28;;;;;;;0.65;0.65;;;;;;;3.92;80.86;97008.00;29395;206;63008;-57
2023/10/17 00:16:00;;;;;;;0.60;0.60;;;;;;;3.93;81.71;96998.87;29395;233;63005;-57
2023/10/17 00:16:33;;;;;;;0.60;0.60;;;;;;;3.93;81.85;97004.25;29395;206;63009;-57
2023/10/17 00:17:05;;;;;;;0.60;0.60;;;;;;;3.93;81.64;97004.25;29395;212;63005;-57
2023/10/17 00:17:39;;;;;;;0.60;0.60;;;;;;;3.96;82.03;97002.94;29395;224;63009;-57
2023/10/17 00:18:18;;;;;;;0.60;0.60;;;;;;;3.95;82.02;97002.12;29394;212;64009;-57
2023/10/17 00:18:54;;;;;;;0.60;0.60;;;;;;;3.98;81.64;97000.84;29395;198;63009;-58
2023/10/17 00:19:26;;;;;;;0.50;0.50;;;;;;;3.99;81.32;96991.72;29395;331;63005;-57
2023/10/17 00:19:57;;;;;;;0.52;0.52;;;;;;;3.99;81.57;96986.34;29395;289;63009;-57
2023/10/17 00:20:37;;;;;;;0.60;0.60;;;;;;;4.00;81.16;96994.16;29394;224;64009;-62
2023/10/17 00:21:15;;;;;;;0.60;0.60;;;;;;;4.03;80.92;96992.84;29395;239;63009;-57
2023/10/17 00:21:49;;;;;;;0.60;0.60;;;;;;;4.04;81.70;96989.09;29395;197;63004;-57
2023/10/17 00:22:23;;;;;;;0.60;0.60;;;;;;;4.03;81.44;96990.97;29395;213;63008;-57
2023/10/17 00:22:55;;;;;;;0.60;0.60;;;;;;;4.04;81.56;96984.56;29395;267;63004;-57
2023/10/17 00:23:31;;;;;;;0.60;0.60;;;;;;;4.07;80.62;96977.06;29395;215;63009;-57
2023/10/17 00:24:12;;;;;;;0.60;0.60;;;;;;;4.10;80.51;96981.94;29394;231;64009;-58
2023/10/17 00:24:46;;;;;;;0.60;0.60;;;;;;;4.10;80.39;96979.25;29395;211;63009;-58
2023/10/17 00:25:18;;;;;;;0.52;0.52;;;;;;;4.07;80.34;96977.06;29395;249;63005;-57
2023/10/17 00:25:49;;;;;;;0.60;0.60;;;;;;;4.06;80.71;96978.13;29395;210;63009;-58
2023/10/17 00:26:22;;;;;;;0.60;0.60;;;;;;;4.04;81.13;96976.50;29395;244;63005;-57
2023/10/17 00:26:53;;;;;;;0.60;0.60;;;;;;;4.04;81.00;96979.19;29395;197;63009;-57
2023/10/17 00:27:24;;;;;;;0.57;0.57;;;;;;;4.06;80.80;96975.44;29395;203;63004;-57
2023/10/17 00:27:59;;;;;;;0.60;0.60;;;;;;;4.06;80.44;96975.44;29394;273;64013;-56
2023/10/17 00:28:33;;;;;;;0.60;0.60;;;;;;;4.04;80.11;96968.44;29395;202;63004;-57
2023/10/17 00:29:09;;;;;;;0.60;0.60;;;;;;;4.03;79.74;96972.19;29395;212;63009;-57
2023/10/17 00:29:41;;;;;;;0.60;0.60;;;;;;;4.05;79.88;96974.63;29395;221;63014;-57
2023/10/17 00:30:19;;;;;;;0.60;0.60;;;;;;;4.08;79.41;96966.06;29395;212;63008;-57
2023/10/17 00:30:51;;;;;;;0.60;0.60;;;;;;;4.12;79.35;96958.34;29395;215;63005;-62
2023/10/17 00:31:22;;;;;;;0.60;0.60;;;;;;;4.14;79.46;96961.56;29395;246;63014;-63
2023/10/17 00:31:57;;;;;;;0.60;0.60;;;;;;;4.14;79.68;96961.56;29395;340;63005;-57
2023/10/17 00:32:31;;;;;;;0.60;0.60;;;;;;;4.14;79.36;96956.22;29395;222;63009;-57
2023/10/17 00:33:11;;;;;;;0.60;0.60;;;;;;;4.14;79.15;96956.22;29394;358;64009;-57
2023/10/17 00:33:48;;;;;;;0.60;0.60;;;;;;;4.13;79.72;96949.22;29416;199;64013;-58
2023/10/17 00:34:24;;;;;;;0.60;0.60;;;;;;;4.14;79.88;96950.84;29395;236;63005;-57
2023/10/17 00:34:56;;;;;;;0.60;0.60;;;;;;;4.14;79.68;96950.84;29395;202;63009;-57
2023/10/17 00:35:36;;;;;;;0.55;0.55;;;;;;;4.14;79.95;96951.66;29395;223;63004;-57
2023/10/17 00:36:16;;;;;;;0.60;0.60;;;;;;;4.14;79.65;96948.97;29395;215;63009;-57
2023/10/17 00:36:54;;;;;;;0.60;0.60;;;;;;;4.10;80.39;96944.34;29395;204;63004;-58
2023/10/17 00:37:30;;;;;;;0.60;0.60;;;;;;;4.09;79.96;96943.53;29395;232;63008;-57
2023/10/17 00:38:04;;;;;;;0.60;0.60;;;;;;;4.08;80.16;96952.66;29394;224;64008;-57
2023/10/17 00:38:37;;;;;;;0.60;0.60;;;;;;;4.07;80.27;96947.53;29395;289;63025;-58
2023/10/17 00:39:11;;;;;;;0.60;0.60;;;;;;;4.04;81.35;96952.34;29395;251;63005;-57
2023/10/17 00:39:43;;;;;;;0.60;0.60;;;;;;;4.03;81.25;96949.91;29395;218;63009;-58
2023/10/17 00:40:34;;;;;;;0.55;0.55;;;;;;;4.02;81.51;96949.09;29395;266;63005;-57
2023/10/17 00:41:07;;;;;;;0.50;0.50;;;;;;;4.00;83.15;96950.38;29417;222;63009;-57
2023/10/17 00:41:52;;;;;;;0.60;0.60;;;;;;;3.96;83.57;96954.63;29395;204;63004;-57
2023/10/17 00:42:29;;;;;;;0.60;0.60;;;;;;;3.92;83.68;96948.94;29395;363;63009;-57
2023/10/17 00:43:05;;;;;;;0.60;0.60;;;;;;;3.91;84.85;96963.44;29394;236;64009;-57
2023/10/17 00:43:37;;;;;;;0.60;0.60;;;;;;;3.89;84.58;96954.81;29395;266;63009;-57
2023/10/17 00:44:09;;;;;;;0.60;0.60;;;;;;;3.88;85.11;96960.41;29395;240;63004;-57
2023/10/17 00:44:44;;;;;;;0.60;0.60;;;;;;;3.87;84.54;96962.28;29395;221;63008;-57
2023/10/17 00:45:16;;;;;;;0.60;0.60;;;;;;;3.86;85.01;96949.94;29395;308;63004;-57
2023/10/17 00:45:48;;;;;;;0.60;0.60;;;;;;;3.84;84.96;96960.09;29395;230;63009;-57
2023/10/17 00:46:19;;;;;;;0.60;0.60;;;;;;;3.85;85.05;96955.53;29395;206;63010;-57
2023/10/17 00:46:52;;;;;;;0.50;0.50;;;;;;;3.83;84.35;96958.47;29395;224;63009;-56
2023/10/17 00:47:25;;;;;;;0.60;0.60;;;;;;;3.84;84.97;96956.59;29395;244;63005;-57
2023/10/17 00:47:58;;;;;;;0.60;0.60;;;;;;;3.81;85.05;96952.53;29395;210;63009;-57
2023/10/17 00:48:33;;;;;;;0.60;0.60;;;;;;;3.78;85.49;96963.81;29394;278;64009;-57
2023/10/17 00:49:06;;;;;;;0.60;0.60;;;;;;;3.74;85.67;96957.31;29395;236;63009;-57
2023/10/17 00:49:42;;;;;;;0.60;0.60;;;;;;;3.72;86.56;96959.41;29395;250;63004;-57
2023/10/17 00:50:15;;;;;;;0.60;0.60;;;;;;;3.70;86.43;96962.34;29395;221;63009;-57
2023/10/17 00:50:48;;;;;;;0.60;0.60;;;;;;;3.68;86.01;96958.28;29395;362;63017;-57
2023/10/17 00:51:21;;;;;;;0.60;0.60;;;;;;;3.65;85.64;96953.41;29395;208;63009;-57
2023/10/17 00:51:55;;;;;;;0.60;0.60;;;;;;;3.63;85.60;96956.34;29395;205;63004;-62
2023/10/17 00:52:34;;;;;;;0.60;0.60;;;;;;;3.63;85.07;96950.16;29395;226;63009;-57
2023/10/17 00:53:08;;;;;;;0.60;0.60;;;;;;;3.66;85.65;96947.00;29417;280;63005;-58
2023/10/17 00:53:40;;;;;;;0.60;0.60;;;;;;;3.65;84.84;96948.03;29394;221;64014;-57
2023/10/17 00:54:11;;;;;;;0.60;0.60;;;;;;;3.62;85.75;96948.53;29395;232;63005;-57
2023/10/17 00:54:45;;;;;;;0.68;0.68;;;;;;;3.57;84.82;96948.47;29394;222;64009;-57
2023/10/17 00:55:18;;;;;;;0.60;0.60;;;;;;;3.55;85.46;96937.16;29395;295;63005;-57
2023/10/17 00:55:56;;;;;;;0.60;0.60;;;;;;;3.54;85.39;96941.72;29395;203;63009;-57
2023/10/17 00:56:30;;;;;;;0.60;0.60;;;;;;;3.53;85.69;96939.28;29395;208;63005;-57
2023/10/17 00:57:05;;;;;;;0.55;0.55;;;;;;;3.51;86.12;96941.41;29394;215;64013;-58
2023/10/17 00:57:37;;;;;;;0.60;0.60;;;;;;;3.47;86.32;96941.06;29395;196;63004;-57
2023/10/17 00:58:09;;;;;;;0.60;0.60;;;;;;;3.47;86.26;96937.56;29395;217;63009;-63
2023/10/17 00:58:43;;;;;;;0.60;0.60;;;;;;;3.45;86.52;96937.84;29395;210;63004;-57
2023/10/17 00:59:15;;;;;;;0.60;0.60;;;;;;;3.42;86.37;96932.16;29395;228;63008;-58
2023/10/17 00:59:53;;;;;;;0.60;0.60;;;;;;;3.39;86.78;96938.03;29394;204;64008;-58
2023/10/17 01:00:35;;;;;;;0.60;0.60;;;;;;;3.36;86.81;96932.09;29395;197;63009;-58
2023/10/17 01:01:09;;;;;;;0.60;0.60;;;;;;;3.34;86.73;96931.53;29395;245;63005;-58
2023/10/17 01:01:41;;;;;;;0.60;0.60;;;;;;;3.33;86.67;96932.56;29395;205;63009;-57
2023/10/17 01:02:15;;;;;;;0.60;0.60;;;;;;;3.33;86.66;96929.91;29394;216;64009;-57
2023/10/17 01:02:46;;;;;;;0.60;0.60;;;;;;;3.33;86.68;96924.53;29395;197;63009;-58
2023/10/17 01:03:18;;;;;;;0.60;0.60;;;;;;;3.35;87.22;96932.31;29395;217;63005;-57
2023/10/17 01:03:51;;;;;;;0.60;0.60;;;;;;;3.34;87.29;96926.16;29395;209;63009;-57
2023/10/17 01:04:28;;;;;;;0.60;0.60;;;;;;;3.31;87.30;96926.66;29395;230;63004;-58
2023/10/17 01:05:01;;;;;;;0.60;0.60;;;;;;;3.29;86.94;96926.06;29395;218;63009;-58
2023/10/17 01:06:41;;;;;;;0.60;0.60;;;;;;;3.26;87.30;96929.25;29394;202;64013;-58
2023/10/17 01:07:23;;;;;;;0.60;0.60;;;;;;;3.26;87.24;96934.59;29395;215;63004;-57
2023/10/17 01:07:57;;;;;;;0.60;0.60;;;;;;;3.26;88.21;96931.94;29395;216;63009;-56
2023/10/17 01:08:37;;;;;;;0.60;0.60;;;;;;;3.22;87.99;96928.09;29394;225;64009;-57
2023/10/17 01:09:17;;;;;;;0.60;0.60;;;;;;;3.21;88.28;96939.88;29395;236;63009;-57
2023/10/17 01:09:49;;;;;;;0.60;0.60;;;;;;;3.20;88.04;96946.31;29439;224;63005;-57
2023/10/17 01:10:24;;;;;;;0.60;0.60;;;;;;;3.20;87.70;96938.25;29395;210;63009;-57
2023/10/17 01:10:56;;;;;;;0.70;0.70;;;;;;;3.22;87.81;96930.78;29395;235;63005;-56
2023/10/17 01:11:29;;;;;;;0.50;0.50;;;;;;;3.22;87.69;96936.16;29395;197;63009;-57
2023/10/17 01:12:08;;;;;;;0.60;0.60;;;;;;;3.26;87.23;96937.28;29394;224;64009;-57
2023/10/17 01:12:52;;;;;;;0.60;0.60;;;;;;;3.32;87.13;96938.19;29394;251;64013;-57
2023/10/17 01:13:26;;;;;;;0.60;0.60;;;;;;;3.27;87.12;96930.06;29395;281;63004;-57
2023/10/17 01:14:00;;;;;;;0.60;0.60;;;;;;;3.28;87.15;96929.81;29395;226;63009;-57
2023/10/17 01:14:32;;;;;;;0.60;0.60;;;;;;;3.25;87.11;96932.16;29394;202;64004;-57
2023/10/17 01:15:04;;;;;;;0.60;0.60;;;;;;;3.24;87.02;96930.53;29395;304;63009;-57
2023/10/17 01:15:38;;;;;;;0.60;0.60;;;;;;;3.22;87.12;96927.28;29395;226;63005;-57
2023/10/17 01:16:12;;;;;;;0.60;0.60;;;;;;;3.17;87.21;96927.22;29395;234;63009;-58
2023/10/17 01:16:46;;;;;;;0.55;0.55;;;;;;;3.14;87.47;96925.00;29395;210;63005;-57
2023/10/17 01:17:23;;;;;;;0.60;0.60;;;;;;;3.12;87.57;96927.94;29395;241;63009;-58
2023/10/17 01:18:03;;;;;;;0.60;0.60;;;;;;;3.11;87.57;96931.72;29394;247;64009;-57
2023/10/17 01:18:35;;;;;;;0.60;0.60;;;;;;;3.08;87.40;96932.19;29394;203;64000;-57
2023/10/17 01:19:10;;;;;;;0.60;0.60;;;;;;;3.05;87.75;96935.34;29395;197;63005;-57
2023/10/17 01:19:42;;;;;;;1.12;1.12;;;;;;;3.02;87.37;96933.16;29395;202;63009;-57
2023/10/17 01:20:19;;;;;;;0.60;0.60;;;;;;;3.04;87.89;96931.06;29395;208;63004;-57
2023/10/17 01:20:50;;;;;;;0.60;0.60;;;;;;;3.05;88.06;96932.69;29395;234;63009;-57
2023/10/17 01:21:22;;;;;;;1.25;1.25;;;;;;;3.08;87.66;96934.88;29394;202;64009;-57
2023/10/17 01:21:56;;;;;;;0.60;0.60;;;;;;;3.08;87.94;96936.75;29395;234;63008;-57
2023/10/17 01:22:32;;;;;;;0.60;0.60;;;;;;;3.08;88.18;96934.88;29395;229;63004;-57
2023/10/17 01:23:07;;;;;;;0.60;0.60;;;;;;;3.06;87.85;96939.66;29373;233;63009;-58
2023/10/17 01:23:40;;;;;;;0.60;0.60;;;;;;;3.07;87.89;96935.94;29395;218;63005;-57
2023/10/17 01:24:12;;;;;;;0.60;0.60;;;;;;;3.07;87.68;96935.94;29395;219;63009;-57
2023/10/17 01:24:44;;;;;;;0.60;0.60;;;;;;;3.08;88.01;96934.06;29395;203;63005;-57
2023/10/17 01:25:25;;;;;;;0.60;0.60;;;;;;;3.06;88.18;96934.31;29395;197;63009;-57
2023/10/17 01:25:57;;;;;;;0.60;0.60;;;;;;;3.05;88.17;96938.03;29417;223;63005;-58
2023/10/17 01:26:28;;;;;;;0.60;0.60;;;;;;;3.07;88.06;96935.94;29394;228;64013;-58
2023/10/17 01:27:05;;;;;;;0.60;0.60;;;;;;;3.09;88.58;96936.50;29395;215;63004;-57
2023/10/17 01:27:40;;;;;;;0.60;0.60;;;;;;;3.16;88.24;96936.31;29395;316;63009;-57
2023/10/17 01:28:12;;;;;;;0.60;0.60;;;;;;;3.21;88.26;96936.41;29395;198;63004;-57
2023/10/17 01:28:47;;;;;;;0.60;0.60;;;;;;;3.22;88.27;96944.19;29394;210;64013;-57
2023/10/17 01:29:18;;;;;;;0.60;0.60;;;;;;;3.21;88.15;96945.25;29395;198;63004;-57
2023/10/17 01:29:52;;;;;;;0.60;0.60;;;;;;;3.15;87.75;96932.81;29395;219;63008;-57
2023/10/17 01:30:29;;;;;;;0.60;0.60;;;;;;;3.15;88.18;96937.37;29395;232;63005;-57
2023/10/17 01:31:03;;;;;;;0.60;0.60;;;;;;;3.16;87.84;96934.44;29395;218;63009;-57
2023/10/17 01:31:39;;;;;;;0.60;0.60;;;;;;;3.16;88.38;96939.00;29395;220;63005;-57
2023/10/17 01:32:10;;;;;;;0.60;0.60;;;;;;;3.08;88.15;96932.19;29394;212;64013;-57
2023/10/17 01:32:42;;;;;;;0.60;0.60;;;;;;;3.05;88.06;96931.88;29395;276;63005;-57
2023/10/17 01:33:13;;;;;;;0.60;0.60;;;;;;;3.06;88.21;96934.31;29395;196;63009;-58
2023/10/17 01:33:44;;;;;;;0.50;0.50;;;;;;;3.10;88.27;96935.44;29395;216;63005;-57
2023/10/17 01:34:16;;;;;;;0.60;0.60;;;;;;;3.07;88.71;96927.88;29395;215;63009;-57
2023/10/17 01:34:47;;;;;;;0.60;0.60;;;;;;;3.04;88.77;96936.41;29395;212;63004;-56
2023/10/17 01:35:21;;;;;;;0.60;0.60;;;;;;;3.02;88.52;96938.53;29395;263;63009;-57
2023/10/17 01:35:53;;;;;;;0.60;0.60;;;;;;;3.02;88.58;96938.53;29395;196;63004;-57
2023/10/17 01:36:24;;;;;;;0.60;0.60;;;;;;;3.00;89.15;96929.91;29395;215;63009;-56
2023/10/17 01:36:57;;;;;;;0.60;0.60;;;;;;;2.97;88.80;96933.06;29395;202;63004;-57
2023/10/17 01:37:28;;;;;;;0.60;0.60;;;;;;;2.96;88.50;96934.12;29394;235;64013;-57
2023/10/17 01:38:00;;;;;;;0.60;0.60;;;;;;;3.00;88.78;96940.62;29395;219;63014;-57
2023/10/17 01:38:31;;;;;;;0.60;0.60;;;;;;;3.00;88.75;96929.91;29395;236;63005;-56
2023/10/17 01:39:09;;;;;;;0.60;0.60;;;;;;;2.94;88.83;96928.19;29394;222;64009;-57
2023/10/17 01:39:40;;;;;;;0.60;0.60;;;;;;;2.94;89.04;96931.69;29395;246;63009;-57
2023/10/17 01:40:27;;;;;;;0.60;0.60;;;;;;;2.93;88.85;96935.44;29395;205;63005;-57
2023/10/17 01:41:02;;;;;;;0.60;0.60;;;;;;;2.93;88.77;96929.25;29395;218;63009;-57
2023/10/17 01:41:34;;;;;;;0.60;0.60;;;;;;;2.93;89.11;96927.38;29395;226;63004;-57
2023/10/17 01:42:06;;;;;;;0.60;0.60;;;;;;;2.92;89.47;96925.75;29395;229;63009;-63
2023/10/17 01:42:38;;;;;;;0.60;0.60;;;;;;;2.89;89.62;96922.75;29394;221;64009;-57
2023/10/17 01:43:14;;;;;;;0.60;0.60;;;;;;;2.89;89.90;96928.13;29395;253;63024;-56
2023/10/17 01:43:50;;;;;;;0.60;0.60;;;;;;;2.89;89.36;96928.13;29395;221;63004;-57
2023/10/17 01:44:21;;;;;;;0.60;0.60;;;;;;;2.92;89.85;96922.28;29395;281;63022;-57
2023/10/17 01:44:53;;;;;;;0.60;0.60;;;;;;;2.93;89.94;96923.91;29395;239;63004;-57
2023/10/17 01:45:30;;;;;;;0.60;0.60;;;;;;;2.88;89.74;96927.31;29395;233;63009;-57
2023/10/17 01:46:01;;;;;;;0.60;0.60;;;;;;;2.89;89.37;96930.78;29395;214;63005;-57
2023/10/17 01:46:32;;;;;;;0.60;0.60;;;;;;;2.90;89.77;96929.75;29395;210;63009;-57
2023/10/17 01:47:07;;;;;;;0.60;0.60;;;;;;;2.90;89.30;96927.06;29395;307;63005;-57
2023/10/17 01:47:43;;;;;;;0.60;0.60;;;;;;;2.87;89.11;96931.03;29394;205;64013;-57
2023/10/17 01:48:14;;;;;;;0.60;0.60;;;;;;;2.86;89.45;96931.28;29395;198;63005;-57
2023/10/17 01:48:47;;;;;;;0.60;0.60;;;;;;;2.86;89.42;96929.41;29395;206;63009;-57
2023/10/17 01:49:19;;;;;;;0.60;0.60;;;;;;;2.91;89.53;96932.19;29395;378;63004;-57
2023/10/17 01:49:51;;;;;;;0.60;0.60;;;;;;;2.91;89.27;96931.38;29394;225;64013;-58
2023/10/17 01:50:26;;;;;;;0.60;0.60;;;;;;;2.87;89.33;96924.88;29395;206;63004;-58
2023/10/17 01:51:06;;;;;;;0.60;0.60;;;;;;;2.84;89.32;96930.69;29395;211;63009;-57
2023/10/17 01:51:41;;;;;;;0.60;0.60;;;;;;;2.77;89.68;96930.06;29395;226;63004;-57
2023/10/17 01:52:13;;;;;;;0.60;0.60;;;;;;;2.78;89.87;96923.63;29395;218;63009;-57
2023/10/17 01:52:44;;;;;;;0.55;0.55;;;;;;;2.78;89.96;96929.00;29395;231;63005;-57
2023/10/17 01:53:17;;;;;;;0.60;0.60;;;;;;;2.79;89.99;96928.75;29395;221;63009;-56
2023/10/17 01:53:50;;;;;;;0.60;0.60;;;;;;;2.79;89.93;96931.44;29394;335;64009;-57
2023/10/17 01:54:23;;;;;;;0.60;0.60;;;;;;;2.81;89.70;96931.19;29395;234;63025;-57
2023/10/17 01:54:54;;;;;;;0.60;0.60;;;;;;;2.82;89.87;96932.81;29395;227;63005;-57
2023/10/17 01:55:27;;;;;;;0.60;0.60;;;;;;;2.81;89.93;96921.28;29395;202;63009;-57
2023/10/17 01:57:05;;;;;;;0.60;0.60;;;;;;;2.83;89.97;96929.06;29395;250;63009;-57
2023/10/17 01:57:40;;;;;;;0.60;0.60;;;;;;;2.85;90.22;96926.97;29395;202;63004;-58
2023/10/17 01:58:16;;;;;;;0.60;0.60;;;;;;;2.83;90.06;96923.72;29395;201;63009;-58
2023/10/17 01:58:48;;;;;;;0.60;0.60;;;;;;;2.83;90.18;96918.34;29394;227;64008;-57
2023/10/17 01:59:25;;;;;;;0.55;0.55;;;;;;;2.84;90.27;96928.03;29395;222;63004;-57
2023/10/17 02:00:00;;;;;;;0.60;0.60;;;;;;;2.81;90.33;96920.47;29395;232;63005;-58
2023/10/17 02:00:37;;;;;;;0.60;0.60;;;;;;;2.78;90.28;96915.59;29395;223;63009;-57
2023/10/17 02:01:14;;;;;;;0.60;0.60;;;;;;;2.75;90.11;96921.47;29395;230;63005;-57
2023/10/17 02:01:46;;;;;;;0.60;0.60;;;;;;;2.75;90.13;96914.25;29395;206;63009;-58
2023/10/17 02:02:17;;;;;;;0.60;0.60;;;;;;;2.74;90.29;96909.13;29395;295;63005;-63
2023/10/17 02:02:49;;;;;;;0.57;0.57;;;;;;;2.73;90.68;96912.84;29395;210;63009;-57
2023/10/17 02:03:20;;;;;;;0.60;0.60;;;;;;;2.73;90.37;96915.53;29373;206;63015;-57
2023/10/17 02:04:05;;;;;;;0.80;0.80;;;;;;;2.73;91.57;96912.84;29394;212;64013;-57
2023/10/17 02:04:36;;;;;;;0.60;0.60;;;;;;;2.72;91.53;96911.22;29395;264;63004;-57
2023/10/17 02:05:12;;;;;;;0.60;0.60;;;;;;;2.71;91.92;96914.97;29373;230;63009;-56
2023/10/17 02:05:44;;;;;;;0.70;0.70;;;;;;;2.70;91.96;96916.81;29394;250;64009;-57
2023/10/17 02:06:16;;;;;;;0.70;0.70;;;;;;;2.71;91.71;96915.78;29373;258;63008;-57
2023/10/17 02:06:50;;;;;;;0.60;0.60;;;;;;;2.75;91.61;96910.75;29373;232;63004;-57
2023/10/17 02:07:21;;;;;;;0.60;0.60;;;;;;;2.78;91.58;96912.91;29373;221;63028;-57
2023/10/17 02:07:56;;;;;;;0.60;0.60;;;;;;;2.80;91.09;96908.13;29395;198;63005;-57
2023/10/17 02:08:30;;;;;;;0.60;0.60;;;;;;;2.84;91.15;96910.06;29395;200;63009;-57
2023/10/17 02:09:56;;;;;;;0.60;0.60;;;;;;;2.84;90.26;96909.25;29395;233;63009;-57
2023/10/17 02:10:30;;;;;;;0.60;0.60;;;;;;;2.82;90.10;96909.50;29395;219;63005;-57
2023/10/17 02:11:01;;;;;;;0.60;0.60;;;;;;;2.80;90.18;96910.81;29394;267;64013;-57
2023/10/17 02:11:40;;;;;;;0.60;0.60;;;;;;;2.79;90.11;96909.19;29395;253;63004;-57
2023/10/17 02:12:19;;;;;;;0.50;0.50;;;;;;;2.81;90.31;96904.38;29395;224;63023;-57
2023/10/17 02:12:52;;;;;;;0.60;0.60;;;;;;;2.78;90.73;96910.22;29395;203;63004;-57
2023/10/17 02:13:23;;;;;;;0.60;0.60;;;;;;;2.73;90.81;96913.66;29395;259;63009;-57
2023/10/17 02:13:59;;;;;;;0.60;0.60;;;;;;;2.70;90.73;96906.13;29395;213;63004;-56
2023/10/17 02:14:30;;;;;;;0.60;0.60;;;;;;;2.67;90.82;96910.09;29394;211;64013;-57
2023/10/17 02:15:05;;;;;;;0.60;0.60;;;;;;;2.68;90.52;96910.91;29395;237;63005;-57
2023/10/17 02:15:38;;;;;;;0.60;0.60;;;;;;;2.69;90.91;96902.62;29395;228;63009;-58
2023/10/17 02:16:10;;;;;;;0.60;0.60;;;;;;;2.68;91.53;96911.72;29395;237;63005;-56
2023/10/17 02:16:43;;;;;;;0.60;0.60;;;;;;;2.68;91.63;96906.34;29395;234;63009;-58
2023/10/17 02:17:15;;;;;;;0.60;0.60;;;;;;;2.67;91.46;96910.09;29395;226;63005;-58
2023/10/17 02:17:51;;;;;;;0.60;0.60;;;;;;;2.67;91.23;96907.41;29395;245;63009;-56
2023/10/17 02:18:23;;;;;;;0.60;0.60;;;;;;;2.65;91.31;96909.50;29395;197;63005;-58
2023/10/17 02:18:58;;;;;;;0.60;0.60;;;;;;;2.64;91.23;96907.06;29395;230;63009;-56
2023/10/17 02:19:32;;;;;;;0.60;0.60;;;;;;;2.63;91.25;96914.28;29394;207;64009;-57
2023/10/17 02:20:26;;;;;;;0.60;0.60;;;;;;;2.63;91.40;96910.81;29395;218;63009;-57
2023/10/17 02:21:04;;;;;;;0.60;0.60;;;;;;;2.60;91.37;96909.41;29395;241;63004;-57
2023/10/17 02:21:39;;;;;;;0.60;0.60;;;;;;;2.59;91.70;96907.78;29395;235;63008;-58
2023/10/17 02:22:11;;;;;;;0.60;0.60;;;;;;;2.59;91.54;96907.78;29395;208;63005;-58
2023/10/17 02:22:44;;;;;;;0.60;0.60;;;;;;;2.60;92.29;96909.41;29395;228;63009;-57
2023/10/17 02:23:19;;;;;;;0.60;0.60;;;;;;;2.59;92.38;96912.34;29395;216;63005;-57
2023/10/17 02:23:51;;;;;;;0.60;0.60;;;;;;;2.64;92.51;96915.91;29395;222;63009;-56
2023/10/17 02:24:22;;;;;;;0.60;0.60;;;;;;;2.69;92.33;96913.34;29394;202;64009;-57
2023/10/17 02:24:56;;;;;;;0.60;0.60;;;;;;;2.65;92.15;96914.06;29395;223;63009;-57
2023/10/17 02:25:34;;;;;;;0.60;0.60;;;;;;;2.63;91.97;96911.63;29394;277;64009;-57
2023/10/17 02:26:12;;;;;;;0.60;0.60;;;;;;;2.58;91.74;96911.53;29371;206;64013;-58
2023/10/17 02:27:00;;;;;;;0.60;0.60;;;;;;;2.58;91.85;96916.06;29395;238;63004;-56
2023/10/17 02:27:37;;;;;;;0.60;0.60;;;;;;;2.59;92.37;96921.19;29395;199;63009;-56
2023/10/17 02:28:08;;;;;;;0.60;0.60;;;;;;;2.56;92.48;96913.63;29373;236;63004;-57
2023/10/17 02:28:49;;;;;;;0.60;0.60;;;;;;;2.56;92.71;96918.19;29395;275;63009;-56
2023/10/17 02:29:26;;;;;;;0.60;0.60;;;;;;;2.56;92.74;96915.50;29373;202;63004;-57
2023/10/17 02:29:58;;;;;;;0.60;0.60;;;;;;;2.57;92.70;96919.81;29395;283;63009;-57
2023/10/17 02:30:29;;;;;;;0.60;0.60;;;;;;;2.56;92.13;96919.00;29373;202;63005;-57
2023/10/17 02:31:01;;;;;;;0.60;0.60;;;;;;;2.57;92.49;96917.94;29395;259;63009;-57
2023/10/17 02:31:33;;;;;;;0.60;0.60;;;;;;;2.57;92.69;96920.63;29394;261;64009;-58
2023/10/17 02:32:13;;;;;;;0.65;0.65;;;;;;;2.58;92.18;96918.75;29395;200;63009;-57
2023/10/17 02:32:47;;;;;;;0.60;0.60;;;;;;;2.56;92.43;96916.31;29417;281;63005;-57
2023/10/17 02:33:18;;;;;;;0.70;0.70;;;;;;;2.54;92.59;96915.72;29395;302;63009;-58
2023/10/17 02:33:49;;;;;;;0.60;0.60;;;;;;;2.51;92.92;96916.22;29373;243;63004;-58
2023/10/17 02:34:30;;;;;;;0.60;0.60;;;;;;;2.49;93.04;96915.63;29373;204;63009;-57
2023/10/17 02:35:03;;;;;;;;;;;;;;;2.49;92.76;96918.31;29996;983;6000;-57
2023/10/17 02:35:41;;;;;;;0.70;0.70;;;;;;;2.50;92.48;96913.78;29400;210;63004;-58
2023/10/17 02:36:12;;;;;;;0.65;0.65;;;;;;;2.50;92.57;96919.94;29395;260;63008;-57
2023/10/17 02:36:45;;;;;;;0.60;0.60;;;;;;;2.51;92.35;96918.09;29394;244;64008;-57
2023/10/17 02:37:19;;;;;;;0.70;0.70;;;;;;;2.51;92.71;96920.75;29395;219;63026;-57
2023/10/17 02:37:50;;;;;;;0.60;0.60;;;;;;;2.48;92.59;96921.25;29395;264;63009;-58
2023/10/17 02:38:22;;;;;;;0.60;0.60;;;;;;;2.47;92.83;96920.44;29394;219;64019;-57
2023/10/17 02:38:55;;;;;;;0.60;0.60;;;;;;;2.47;92.58;96923.09;29395;237;63005;-63
2023/10/17 02:39:27;;;;;;;0.60;0.60;;;;;;;2.49;92.44;96933.56;29395;203;63009;-57
2023/10/17 02:40:07;;;;;;;0.60;0.60;;;;;;;2.48;93.16;96924.72;29395;262;63005;-57
2023/10/17 02:40:40;;;;;;;0.60;0.60;;;;;;;2.47;93.34;96931.13;29416;229;64013;-57
2023/10/17 02:41:25;;;;;;;0.60;0.60;;;;;;;2.48;93.26;96931.94;29395;291;63016;-57
2023/10/17 02:42:08;;;;;;;0.60;0.60;;;;;;;2.47;92.76;96947.22;29395;238;63009;-56
2023/10/17 02:42:39;;;;;;;0.60;0.60;;;;;;;2.54;93.52;96941.72;29373;226;63004;-57
2023/10/17 02:43:12;;;;;;;0.60;0.60;;;;;;;2.55;93.44;96940.66;29373;246;63008;-57
2023/10/17 02:43:45;;;;;;;0.60;0.60;;;;;;;2.55;93.61;96946.00;29371;277;64008;-57
2023/10/17 02:44:19;;;;;;;0.60;0.60;;;;;;;2.53;93.71;96943.56;29395;235;63009;-57
2023/10/17 02:44:50;;;;;;;0.60;0.60;;;;;;;2.54;93.31;96947.88;29395;202;63005;-57
2023/10/17 02:45:25;;;;;;;0.80;0.80;;;;;;;2.56;93.47;96951.13;29395;214;63009;-57
2023/10/17 02:46:04;;;;;;;0.60;0.60;;;;;;;2.58;93.29;96948.22;29395;252;63005;-58
2023/10/17 02:46:36;;;;;;;0.60;0.60;;;;;;;2.57;93.90;96947.41;29371;257;64013;-57
2023/10/17 02:47:12;;;;;;;0.60;0.60;;;;;;;2.58;93.80;96943.66;29373;208;63005;-57
2023/10/17 02:47:44;;;;;;;0.60;0.60;;;;;;;2.57;93.58;96947.41;29373;215;63009;-57
2023/10/17 02:48:27;;;;;;;0.60;0.60;;;;;;;2.58;93.63;96948.22;29373;245;63004;-57
2023/10/17 02:48:59;;;;;;;0.57;0.57;;;;;;;2.58;93.67;96946.34;29395;214;63009;-57
2023/10/17 02:49:37;;;;;;;0.60;0.60;;;;;;;2.58;93.34;96941.00;29373;238;63004;-57
2023/10/17 02:50:20;;;;;;;0.60;0.60;;;;;;;2.57;93.19;96947.41;29373;293;63016;-56